Terminal Aerodrome Forecast
Issued by NWS

Home | Current Version | Previous Version | Text Only | Print | Product List | Glossary On
Versions: 1 2 3 4 5 6 7 8 9 10 11 12
392
FTUS43 KAPX 192325
TAFMBL
TAF
KMBL 192325Z 2000/2024 VRB03KT P6SM SCT150
     FM201300 12007KT P6SM SCT200
     FM201700 13010G19KT P6SM BKN200=

USA.gov is the U.S. government's official web portal to all federal, state and local government web resources and services.